Aérodrome :







RETROUVEZ-NOUS SUR...

 
LOGIN :

S'inscrire | Disclaimer

   EN    FR    IT 

 









Légende :    VFR   VFR Marginal   IFR   IFR Intensif   IFR Très Intensif
Visi : 
Plafond : 
>= 8 km
>= 3000ft
5 à 8 km
1000 à 3000 ft
1500m à 5 km
500 à 1000 ft
800 à 1500m
200 à 500 ft
< 800m
< 200 ft
Symboles :   Orages  Brouillard  Fortes neiges  Fortes précipitations  Vent > 20 kt






- Altitude de l'aérodrome : 215 ft
- Code IATA : MSS


KMSS - Massena International Richards Field

DERNIER METAR :
  • 261653Z AUTO 05016G20KT 10SM OVC055 M02/M06 A3003 RMK AO2 SLP175 T10171061

METARs EXPIRÉS :
  • 261553Z AUTO 06013KT 10SM BKN040 OVC055 M02/M06 A3005 RMK AO2 SLP180 T10171061
  • 261453Z AUTO 05016KT 10SM OVC043 M02/M06 A3005 RMK AO2 SNE13 SLP183 P0000 60000 T10171061 58002

TAF KMSS
Valide du 26 à 14h jusqu'au 27 à 12h UTC


261400Z 2614/2712 06011KT 5SM -SHSN OVC050
FM261600 04010G18KT P6SM VCSH OVC040
FM261800 05011KT 1 1/2SM -SN BR OVC027
FM262000 05011G19KT 1 1/2SM -SNRA BR OVC018
FM270100 07015KT 1 1/2SM -SN BR OVC011
FM270600 07012KT 1 1/2SM -SNRA BR OVC030 WS020/15035KT



MET'MAP, la Météo Aéronautique d'un coup d'oeil ! - Copyright ORBIFLY Décembre 2007 - Disclaimer

ORBIFLY MET'MAP TEAM :

Programmation & Développement : Alexandra Zaïnal
Sur une idée originale de : Baudouin d'Aumeries
Assistance à la programmation : Marc-Olivier Méhu
Soutien technique & logistique : Manuel Goepfert

Contact : metmap@orbifly.com




SOURCES & CREDITS :

   NOAA